Terminal Aerodrome Forecast
Issued by NWS Dallas/Fort Worth, TX

Home | Current Version | Previous Version | Text Only | Print | Product List | Glossary On
Versions: 1 2 3 4 5 6 7 8 9 10 11 12 13 14 15 16 17 18 19 20 21 22 23 24 25 26 27 28 29 30 31 32 33 34
679
FTUS44 KFWD 292051 AAB
TAFACT
TAF AMD
KACT 292051Z 2921/3018 18012KT P6SM FEW030 SCT250
     FM300200 30014KT P6SM SCT080=

USA.gov is the U.S. government's official web portal to all federal, state and local government web resources and services.